sensor_id;sensor_type;location;lat;lon;timestamp;P1;durP1;ratioP1;P2;durP2;ratioP2
65896;SDS011;52677;50.898;10.854;2023-03-07T00:00:54;17.50;;;8.82;;
65896;SDS011;52677;50.898;10.854;2023-03-07T00:02:55;16.58;;;8.35;;
65896;SDS011;52677;50.898;10.854;2023-03-07T00:04:55;14.98;;;8.02;;
65896;SDS011;52677;50.898;10.854;2023-03-07T00:06:55;14.77;;;8.10;;
65896;SDS011;52677;50.898;10.854;2023-03-07T00:08:57;14.32;;;8.15;;
65896;SDS011;52677;50.898;10.854;2023-03-07T00:10:59;18.33;;;9.00;;
65896;SDS011;52677;50.898;10.854;2023-03-07T00:13:04;17.85;;;8.50;;
65896;SDS011;52677;50.898;10.854;2023-03-07T00:15:04;18.08;;;8.80;;
65896;SDS011;52677;50.898;10.854;2023-03-07T00:17:06;15.98;;;8.80;;
65896;SDS011;52677;50.898;10.854;2023-03-07T00:19:06;15.88;;;8.65;;
65896;SDS011;52677;50.898;10.854;2023-03-07T00:21:09;18.45;;;8.18;;
65896;SDS011;52677;50.898;10.854;2023-03-07T00:23:11;16.38;;;8.52;;
65896;SDS011;52677;50.898;10.854;2023-03-07T00:25:13;16.10;;;7.95;;
65896;SDS011;52677;50.898;10.854;2023-03-07T00:27:14;17.88;;;8.38;;
65896;SDS011;52677;50.898;10.854;2023-03-07T00:29:14;17.48;;;9.65;;
65896;SDS011;52677;50.898;10.854;2023-03-07T00:31:15;17.33;;;8.73;;
65896;SDS011;52677;50.898;10.854;2023-03-07T00:33:15;17.95;;;8.40;;
65896;SDS011;52677;50.898;10.854;2023-03-07T00:35:15;18.55;;;8.63;;
65896;SDS011;52677;50.898;10.854;2023-03-07T00:37:16;17.25;;;8.48;;
65896;SDS011;52677;50.898;10.854;2023-03-07T00:39:16;16.92;;;8.23;;
65896;SDS011;52677;50.898;10.854;2023-03-07T00:41:17;18.88;;;8.98;;
65896;SDS011;52677;50.898;10.854;2023-03-07T00:43:19;18.40;;;9.05;;
65896;SDS011;52677;50.898;10.854;2023-03-07T00:45:20;17.17;;;8.73;;
65896;SDS011;52677;50.898;10.854;2023-03-07T00:47:20;16.73;;;8.88;;
65896;SDS011;52677;50.898;10.854;2023-03-07T00:49:21;16.88;;;8.60;;
65896;SDS011;52677;50.898;10.854;2023-03-07T00:51:22;22.77;;;9.15;;
65896;SDS011;52677;50.898;10.854;2023-03-07T00:53:23;15.95;;;8.15;;
65896;SDS011;52677;50.898;10.854;2023-03-07T00:55:24;17.10;;;8.55;;
65896;SDS011;52677;50.898;10.854;2023-03-07T00:57:24;17.70;;;8.00;;
65896;SDS011;52677;50.898;10.854;2023-03-07T00:59:24;16.40;;;7.45;;
65896;SDS011;52677;50.898;10.854;2023-03-07T01:01:24;20.70;;;9.40;;
65896;SDS011;52677;50.898;10.854;2023-03-07T01:03:25;17.10;;;8.48;;
65896;SDS011;52677;50.898;10.854;2023-03-07T01:05:26;17.70;;;8.85;;
65896;SDS011;52677;50.898;10.854;2023-03-07T01:07:27;16.40;;;7.78;;
65896;SDS011;52677;50.898;10.854;2023-03-07T01:09:27;16.77;;;8.02;;
65896;SDS011;52677;50.898;10.854;2023-03-07T01:11:28;18.40;;;8.80;;
65896;SDS011;52677;50.898;10.854;2023-03-07T01:13:29;17.35;;;8.45;;
65896;SDS011;52677;50.898;10.854;2023-03-07T01:15:30;17.88;;;8.80;;
65896;SDS011;52677;50.898;10.854;2023-03-07T01:17:31;19.55;;;8.25;;
65896;SDS011;52677;50.898;10.854;2023-03-07T01:19:32;18.00;;;8.32;;
65896;SDS011;52677;50.898;10.854;2023-03-07T01:21:36;16.92;;;8.93;;
65896;SDS011;52677;50.898;10.854;2023-03-07T01:23:38;14.43;;;7.82;;
65896;SDS011;52677;50.898;10.854;2023-03-07T01:25:39;18.77;;;8.65;;
65896;SDS011;52677;50.898;10.854;2023-03-07T01:27:41;16.30;;;8.18;;
65896;SDS011;52677;50.898;10.854;2023-03-07T01:29:41;14.15;;;8.25;;
65896;SDS011;52677;50.898;10.854;2023-03-07T01:31:42;15.15;;;7.68;;
65896;SDS011;52677;50.898;10.854;2023-03-07T01:33:43;18.13;;;8.68;;
65896;SDS011;52677;50.898;10.854;2023-03-07T01:35:43;20.25;;;9.07;;
65896;SDS011;52677;50.898;10.854;2023-03-07T01:37:43;17.23;;;8.93;;
65896;SDS011;52677;50.898;10.854;2023-03-07T01:39:53;21.08;;;8.82;;
65896;SDS011;52677;50.898;10.854;2023-03-07T01:41:54;17.52;;;8.68;;
65896;SDS011;52677;50.898;10.854;2023-03-07T01:43:54;19.00;;;9.18;;
65896;SDS011;52677;50.898;10.854;2023-03-07T01:48:17;16.67;;;8.87;;
65896;SDS011;52677;50.898;10.854;2023-03-07T01:50:17;14.65;;;7.68;;
65896;SDS011;52677;50.898;10.854;2023-03-07T01:52:22;15.68;;;8.75;;
65896;SDS011;52677;50.898;10.854;2023-03-07T01:54:26;17.17;;;8.05;;
65896;SDS011;52677;50.898;10.854;2023-03-07T01:56:29;17.42;;;9.25;;
65896;SDS011;52677;50.898;10.854;2023-03-07T01:58:30;20.42;;;8.95;;
65896;SDS011;52677;50.898;10.854;2023-03-07T02:00:30;18.17;;;8.27;;
65896;SDS011;52677;50.898;10.854;2023-03-07T02:02:31;20.05;;;8.60;;
65896;SDS011;52677;50.898;10.854;2023-03-07T02:04:35;19.63;;;8.67;;
65896;SDS011;52677;50.898;10.854;2023-03-07T02:06:40;17.75;;;9.13;;
65896;SDS011;52677;50.898;10.854;2023-03-07T02:08:40;17.95;;;8.75;;
65896;SDS011;52677;50.898;10.854;2023-03-07T02:10:44;17.85;;;8.82;;
65896;SDS011;52677;50.898;10.854;2023-03-07T02:12:44;16.23;;;8.40;;
65896;SDS011;52677;50.898;10.854;2023-03-07T02:14:45;20.13;;;9.43;;
65896;SDS011;52677;50.898;10.854;2023-03-07T02:18:48;17.88;;;8.63;;
65896;SDS011;52677;50.898;10.854;2023-03-07T02:23:35;20.13;;;9.23;;
65896;SDS011;52677;50.898;10.854;2023-03-07T02:25:48;16.50;;;8.90;;
65896;SDS011;52677;50.898;10.854;2023-03-07T02:27:51;19.15;;;8.98;;
65896;SDS011;52677;50.898;10.854;2023-03-07T02:29:55;19.85;;;9.05;;
65896;SDS011;52677;50.898;10.854;2023-03-07T02:31:56;20.50;;;9.10;;
65896;SDS011;52677;50.898;10.854;2023-03-07T02:33:56;18.17;;;8.73;;
65896;SDS011;52677;50.898;10.854;2023-03-07T02:35:58;21.00;;;9.82;;
65896;SDS011;52677;50.898;10.854;2023-03-07T02:38:05;20.08;;;9.43;;
65896;SDS011;52677;50.898;10.854;2023-03-07T02:40:06;17.73;;;8.52;;
65896;SDS011;52677;50.898;10.854;2023-03-07T02:42:13;16.48;;;8.15;;
65896;SDS011;52677;50.898;10.854;2023-03-07T02:44:17;20.58;;;8.57;;
65896;SDS011;52677;50.898;10.854;2023-03-07T02:46:17;19.58;;;9.40;;
65896;SDS011;52677;50.898;10.854;2023-03-07T02:48:18;18.58;;;8.43;;
65896;SDS011;52677;50.898;10.854;2023-03-07T02:50:19;18.50;;;8.80;;
65896;SDS011;52677;50.898;10.854;2023-03-07T02:52:19;15.82;;;7.63;;
65896;SDS011;52677;50.898;10.854;2023-03-07T02:54:20;21.42;;;8.95;;
65896;SDS011;52677;50.898;10.854;2023-03-07T02:56:21;15.65;;;7.80;;
65896;SDS011;52677;50.898;10.854;2023-03-07T02:58:21;18.60;;;9.00;;
65896;SDS011;52677;50.898;10.854;2023-03-07T03:00:21;16.95;;;8.15;;
65896;SDS011;52677;50.898;10.854;2023-03-07T03:02:22;15.15;;;7.95;;
65896;SDS011;52677;50.898;10.854;2023-03-07T03:04:22;18.20;;;8.60;;
65896;SDS011;52677;50.898;10.854;2023-03-07T03:06:22;15.52;;;8.30;;
65896;SDS011;52677;50.898;10.854;2023-03-07T03:08:23;16.50;;;7.90;;
65896;SDS011;52677;50.898;10.854;2023-03-07T03:10:23;15.57;;;7.22;;
65896;SDS011;52677;50.898;10.854;2023-03-07T03:12:23;16.73;;;8.00;;
65896;SDS011;52677;50.898;10.854;2023-03-07T03:14:24;15.10;;;7.82;;
65896;SDS011;52677;50.898;10.854;2023-03-07T03:16:24;19.05;;;8.85;;
65896;SDS011;52677;50.898;10.854;2023-03-07T03:18:28;17.60;;;8.25;;
65896;SDS011;52677;50.898;10.854;2023-03-07T03:20:29;14.52;;;7.68;;
65896;SDS011;52677;50.898;10.854;2023-03-07T03:22:29;14.00;;;7.55;;
65896;SDS011;52677;50.898;10.854;2023-03-07T03:24:29;12.63;;;7.00;;
65896;SDS011;52677;50.898;10.854;2023-03-07T03:26:29;14.82;;;7.75;;
65896;SDS011;52677;50.898;10.854;2023-03-07T03:28:30;15.35;;;7.70;;
65896;SDS011;52677;50.898;10.854;2023-03-07T03:30:30;15.93;;;8.07;;
65896;SDS011;52677;50.898;10.854;2023-03-07T03:32:37;14.57;;;7.10;;
65896;SDS011;52677;50.898;10.854;2023-03-07T03:34:39;14.73;;;7.43;;
65896;SDS011;52677;50.898;10.854;2023-03-07T03:36:39;15.43;;;7.53;;
65896;SDS011;52677;50.898;10.854;2023-03-07T03:38:39;14.43;;;6.35;;
65896;SDS011;52677;50.898;10.854;2023-03-07T03:40:40;16.05;;;7.38;;
65896;SDS011;52677;50.898;10.854;2023-03-07T03:42:41;14.98;;;8.38;;
65896;SDS011;52677;50.898;10.854;2023-03-07T03:44:42;14.70;;;6.57;;
65896;SDS011;52677;50.898;10.854;2023-03-07T03:46:42;12.63;;;6.63;;
65896;SDS011;52677;50.898;10.854;2023-03-07T03:48:43;12.93;;;6.45;;
65896;SDS011;52677;50.898;10.854;2023-03-07T03:50:43;13.95;;;6.32;;
65896;SDS011;52677;50.898;10.854;2023-03-07T03:52:43;14.82;;;6.45;;
65896;SDS011;52677;50.898;10.854;2023-03-07T03:54:44;11.20;;;6.20;;
65896;SDS011;52677;50.898;10.854;2023-03-07T03:56:44;13.63;;;6.45;;
65896;SDS011;52677;50.898;10.854;2023-03-07T03:58:48;9.55;;;5.88;;
65896;SDS011;52677;50.898;10.854;2023-03-07T04:00:50;10.82;;;5.85;;
65896;SDS011;52677;50.898;10.854;2023-03-07T04:02:50;12.90;;;6.43;;
65896;SDS011;52677;50.898;10.854;2023-03-07T04:04:51;11.15;;;6.22;;
65896;SDS011;52677;50.898;10.854;2023-03-07T04:06:51;11.40;;;5.57;;
65896;SDS011;52677;50.898;10.854;2023-03-07T04:08:52;11.27;;;6.20;;
65896;SDS011;52677;50.898;10.854;2023-03-07T04:10:53;12.43;;;6.10;;
65896;SDS011;52677;50.898;10.854;2023-03-07T04:12:53;11.90;;;5.78;;
65896;SDS011;52677;50.898;10.854;2023-03-07T04:14:54;11.80;;;5.85;;
65896;SDS011;52677;50.898;10.854;2023-03-07T04:16:54;11.05;;;5.93;;
65896;SDS011;52677;50.898;10.854;2023-03-07T04:18:54;10.55;;;5.63;;
65896;SDS011;52677;50.898;10.854;2023-03-07T04:20:55;10.90;;;5.20;;
65896;SDS011;52677;50.898;10.854;2023-03-07T04:22:55;11.23;;;5.53;;
65896;SDS011;52677;50.898;10.854;2023-03-07T04:24:56;11.75;;;5.68;;
65896;SDS011;52677;50.898;10.854;2023-03-07T04:26:56;10.35;;;5.43;;
65896;SDS011;52677;50.898;10.854;2023-03-07T04:28:56;11.07;;;5.30;;
65896;SDS011;52677;50.898;10.854;2023-03-07T04:30:57;8.73;;;5.00;;
65896;SDS011;52677;50.898;10.854;2023-03-07T04:32:57;8.80;;;5.10;;
65896;SDS011;52677;50.898;10.854;2023-03-07T04:34:58;9.82;;;4.78;;
65896;SDS011;52677;50.898;10.854;2023-03-07T04:36:58;9.75;;;4.57;;
65896;SDS011;52677;50.898;10.854;2023-03-07T04:38:58;10.55;;;5.53;;
65896;SDS011;52677;50.898;10.854;2023-03-07T04:40:59;7.78;;;4.70;;
65896;SDS011;52677;50.898;10.854;2023-03-07T04:42:59;8.25;;;4.93;;
65896;SDS011;52677;50.898;10.854;2023-03-07T04:45:00;8.02;;;4.50;;
65896;SDS011;52677;50.898;10.854;2023-03-07T04:47:00;9.65;;;5.38;;
65896;SDS011;52677;50.898;10.854;2023-03-07T04:49:00;9.55;;;4.55;;
65896;SDS011;52677;50.898;10.854;2023-03-07T04:51:01;9.60;;;5.28;;
65896;SDS011;52677;50.898;10.854;2023-03-07T04:53:01;9.52;;;5.20;;
65896;SDS011;52677;50.898;10.854;2023-03-07T04:55:02;9.80;;;5.38;;
65896;SDS011;52677;50.898;10.854;2023-03-07T04:57:02;8.77;;;5.25;;
65896;SDS011;52677;50.898;10.854;2023-03-07T04:59:03;10.88;;;5.00;;
65896;SDS011;52677;50.898;10.854;2023-03-07T05:01:03;7.35;;;4.10;;
65896;SDS011;52677;50.898;10.854;2023-03-07T05:03:05;10.05;;;5.78;;
65896;SDS011;52677;50.898;10.854;2023-03-07T05:05:05;9.52;;;5.05;;
65896;SDS011;52677;50.898;10.854;2023-03-07T05:07:06;10.57;;;5.10;;
65896;SDS011;52677;50.898;10.854;2023-03-07T05:09:06;10.27;;;4.63;;
65896;SDS011;52677;50.898;10.854;2023-03-07T05:11:06;7.82;;;4.45;;
65896;SDS011;52677;50.898;10.854;2023-03-07T05:13:07;8.48;;;4.50;;
65896;SDS011;52677;50.898;10.854;2023-03-07T05:15:07;10.35;;;4.68;;
65896;SDS011;52677;50.898;10.854;2023-03-07T05:17:08;8.50;;;5.03;;
65896;SDS011;52677;50.898;10.854;2023-03-07T05:19:09;10.43;;;4.60;;
65896;SDS011;52677;50.898;10.854;2023-03-07T05:21:09;9.10;;;5.40;;
65896;SDS011;52677;50.898;10.854;2023-03-07T05:23:09;8.07;;;4.32;;
65896;SDS011;52677;50.898;10.854;2023-03-07T05:25:10;8.32;;;4.93;;
65896;SDS011;52677;50.898;10.854;2023-03-07T05:27:10;7.82;;;4.57;;
65896;SDS011;52677;50.898;10.854;2023-03-07T05:29:11;10.25;;;5.10;;
65896;SDS011;52677;50.898;10.854;2023-03-07T05:31:11;9.25;;;5.22;;
65896;SDS011;52677;50.898;10.854;2023-03-07T05:33:12;10.27;;;5.20;;
65896;SDS011;52677;50.898;10.854;2023-03-07T05:35:12;8.52;;;4.60;;
65896;SDS011;52677;50.898;10.854;2023-03-07T05:37:13;10.15;;;5.60;;
65896;SDS011;52677;50.898;10.854;2023-03-07T05:39:13;8.68;;;4.47;;
65896;SDS011;52677;50.898;10.854;2023-03-07T05:41:14;8.45;;;4.60;;
65896;SDS011;52677;50.898;10.854;2023-03-07T05:43:16;9.73;;;4.93;;
65896;SDS011;52677;50.898;10.854;2023-03-07T05:45:16;9.35;;;4.85;;
65896;SDS011;52677;50.898;10.854;2023-03-07T05:47:17;8.25;;;4.50;;
65896;SDS011;52677;50.898;10.854;2023-03-07T05:49:17;8.82;;;4.22;;
65896;SDS011;52677;50.898;10.854;2023-03-07T05:51:17;7.47;;;4.00;;
65896;SDS011;52677;50.898;10.854;2023-03-07T05:53:18;7.30;;;4.18;;
65896;SDS011;52677;50.898;10.854;2023-03-07T05:55:18;7.78;;;4.35;;
65896;SDS011;52677;50.898;10.854;2023-03-07T05:57:18;8.43;;;4.15;;
65896;SDS011;52677;50.898;10.854;2023-03-07T05:59:19;7.38;;;4.00;;
65896;SDS011;52677;50.898;10.854;2023-03-07T06:01:19;7.85;;;4.28;;
65896;SDS011;52677;50.898;10.854;2023-03-07T06:03:19;8.52;;;4.68;;
65896;SDS011;52677;50.898;10.854;2023-03-07T06:05:20;7.00;;;4.28;;
65896;SDS011;52677;50.898;10.854;2023-03-07T06:07:20;7.45;;;4.40;;
65896;SDS011;52677;50.898;10.854;2023-03-07T06:09:20;7.18;;;3.95;;
65896;SDS011;52677;50.898;10.854;2023-03-07T06:11:22;8.73;;;4.20;;
65896;SDS011;52677;50.898;10.854;2023-03-07T06:13:23;7.85;;;4.53;;
65896;SDS011;52677;50.898;10.854;2023-03-07T06:15:24;8.48;;;4.22;;
65896;SDS011;52677;50.898;10.854;2023-03-07T06:17:24;8.35;;;4.05;;
65896;SDS011;52677;50.898;10.854;2023-03-07T06:19:24;6.93;;;3.78;;
65896;SDS011;52677;50.898;10.854;2023-03-07T06:21:25;7.68;;;4.38;;
65896;SDS011;52677;50.898;10.854;2023-03-07T06:23:26;7.07;;;4.03;;
65896;SDS011;52677;50.898;10.854;2023-03-07T06:25:28;6.85;;;4.30;;
65896;SDS011;52677;50.898;10.854;2023-03-07T06:27:31;8.27;;;4.70;;
65896;SDS011;52677;50.898;10.854;2023-03-07T06:29:32;7.25;;;4.40;;
65896;SDS011;52677;50.898;10.854;2023-03-07T06:31:32;7.30;;;4.35;;
65896;SDS011;52677;50.898;10.854;2023-03-07T06:33:32;10.20;;;4.97;;
65896;SDS011;52677;50.898;10.854;2023-03-07T06:35:33;10.30;;;5.20;;
65896;SDS011;52677;50.898;10.854;2023-03-07T06:37:33;8.45;;;4.93;;
65896;SDS011;52677;50.898;10.854;2023-03-07T06:39:34;10.15;;;4.97;;
65896;SDS011;52677;50.898;10.854;2023-03-07T06:41:34;6.97;;;4.40;;
65896;SDS011;52677;50.898;10.854;2023-03-07T06:43:34;7.90;;;4.57;;
65896;SDS011;52677;50.898;10.854;2023-03-07T06:45:35;8.20;;;4.43;;
65896;SDS011;52677;50.898;10.854;2023-03-07T06:47:36;8.90;;;4.82;;
65896;SDS011;52677;50.898;10.854;2023-03-07T06:49:36;8.55;;;5.63;;
65896;SDS011;52677;50.898;10.854;2023-03-07T06:51:36;8.75;;;4.55;;
65896;SDS011;52677;50.898;10.854;2023-03-07T06:53:37;8.57;;;4.55;;
65896;SDS011;52677;50.898;10.854;2023-03-07T06:55:37;10.27;;;4.90;;
65896;SDS011;52677;50.898;10.854;2023-03-07T06:57:38;9.15;;;5.53;;
65896;SDS011;52677;50.898;10.854;2023-03-07T06:59:38;10.35;;;5.00;;
65896;SDS011;52677;50.898;10.854;2023-03-07T07:01:38;7.93;;;4.47;;
65896;SDS011;52677;50.898;10.854;2023-03-07T07:03:39;8.07;;;4.72;;
65896;SDS011;52677;50.898;10.854;2023-03-07T07:05:39;8.13;;;5.40;;
65896;SDS011;52677;50.898;10.854;2023-03-07T07:07:39;7.97;;;4.47;;
65896;SDS011;52677;50.898;10.854;2023-03-07T07:09:40;8.25;;;4.47;;
65896;SDS011;52677;50.898;10.854;2023-03-07T07:11:40;8.25;;;4.32;;
65896;SDS011;52677;50.898;10.854;2023-03-07T07:13:40;10.57;;;5.63;;
65896;SDS011;52677;50.898;10.854;2023-03-07T07:15:41;10.23;;;5.63;;
65896;SDS011;52677;50.898;10.854;2023-03-07T07:17:41;7.50;;;4.05;;
65896;SDS011;52677;50.898;10.854;2023-03-07T07:19:41;8.95;;;5.47;;
65896;SDS011;52677;50.898;10.854;2023-03-07T07:21:42;9.43;;;5.32;;
65896;SDS011;52677;50.898;10.854;2023-03-07T07:23:42;9.50;;;5.00;;
65896;SDS011;52677;50.898;10.854;2023-03-07T07:25:42;8.18;;;4.95;;
65896;SDS011;52677;50.898;10.854;2023-03-07T07:27:43;8.98;;;5.00;;
65896;SDS011;52677;50.898;10.854;2023-03-07T07:29:43;9.57;;;4.70;;
65896;SDS011;52677;50.898;10.854;2023-03-07T07:31:43;11.77;;;5.85;;
65896;SDS011;52677;50.898;10.854;2023-03-07T07:33:44;9.70;;;5.63;;
65896;SDS011;52677;50.898;10.854;2023-03-07T07:35:45;10.27;;;5.47;;
65896;SDS011;52677;50.898;10.854;2023-03-07T07:37:46;10.07;;;5.25;;
65896;SDS011;52677;50.898;10.854;2023-03-07T07:39:47;10.25;;;5.53;;
65896;SDS011;52677;50.898;10.854;2023-03-07T07:41:48;11.00;;;6.13;;
65896;SDS011;52677;50.898;10.854;2023-03-07T07:43:51;8.07;;;5.45;;
65896;SDS011;52677;50.898;10.854;2023-03-07T07:45:52;10.13;;;4.93;;
65896;SDS011;52677;50.898;10.854;2023-03-07T07:47:53;10.30;;;5.63;;
65896;SDS011;52677;50.898;10.854;2023-03-07T07:49:53;8.88;;;5.30;;
65896;SDS011;52677;50.898;10.854;2023-03-07T07:51:53;9.73;;;5.43;;
65896;SDS011;52677;50.898;10.854;2023-03-07T07:53:54;10.60;;;6.20;;
65896;SDS011;52677;50.898;10.854;2023-03-07T07:55:54;11.70;;;6.32;;
65896;SDS011;52677;50.898;10.854;2023-03-07T07:57:54;9.35;;;5.75;;
65896;SDS011;52677;50.898;10.854;2023-03-07T07:59:55;10.23;;;5.72;;
65896;SDS011;52677;50.898;10.854;2023-03-07T08:01:55;10.82;;;5.97;;
65896;SDS011;52677;50.898;10.854;2023-03-07T08:03:55;11.95;;;6.13;;
65896;SDS011;52677;50.898;10.854;2023-03-07T08:05:56;10.43;;;6.00;;
65896;SDS011;52677;50.898;10.854;2023-03-07T08:07:56;8.93;;;6.15;;
65896;SDS011;52677;50.898;10.854;2023-03-07T08:09:56;11.10;;;6.32;;
65896;SDS011;52677;50.898;10.854;2023-03-07T08:11:56;10.77;;;6.20;;
65896;SDS011;52677;50.898;10.854;2023-03-07T08:13:57;11.05;;;6.40;;
65896;SDS011;52677;50.898;10.854;2023-03-07T08:15:57;10.43;;;5.72;;
65896;SDS011;52677;50.898;10.854;2023-03-07T08:17:57;10.73;;;6.13;;
65896;SDS011;52677;50.898;10.854;2023-03-07T08:19:58;13.80;;;6.93;;
65896;SDS011;52677;50.898;10.854;2023-03-07T08:22:00;11.38;;;7.10;;
65896;SDS011;52677;50.898;10.854;2023-03-07T08:24:01;10.35;;;5.28;;
65896;SDS011;52677;50.898;10.854;2023-03-07T08:26:02;10.48;;;5.63;;
65896;SDS011;52677;50.898;10.854;2023-03-07T08:28:06;10.55;;;6.20;;
65896;SDS011;52677;50.898;10.854;2023-03-07T08:30:07;11.02;;;5.82;;
65896;SDS011;52677;50.898;10.854;2023-03-07T08:32:08;9.73;;;5.55;;
65896;SDS011;52677;50.898;10.854;2023-03-07T08:34:08;12.40;;;7.03;;
65896;SDS011;52677;50.898;10.854;2023-03-07T08:36:08;8.98;;;5.55;;
65896;SDS011;52677;50.898;10.854;2023-03-07T08:38:09;10.60;;;6.22;;
65896;SDS011;52677;50.898;10.854;2023-03-07T08:40:09;9.88;;;6.28;;
65896;SDS011;52677;50.898;10.854;2023-03-07T08:42:10;11.45;;;6.57;;
65896;SDS011;52677;50.898;10.854;2023-03-07T08:44:10;10.18;;;5.95;;
65896;SDS011;52677;50.898;10.854;2023-03-07T08:46:11;12.00;;;6.22;;
65896;SDS011;52677;50.898;10.854;2023-03-07T08:48:11;10.82;;;6.35;;
65896;SDS011;52677;50.898;10.854;2023-03-07T08:50:12;8.93;;;5.35;;
65896;SDS011;52677;50.898;10.854;2023-03-07T08:52:12;11.73;;;5.88;;
65896;SDS011;52677;50.898;10.854;2023-03-07T08:54:13;11.88;;;5.55;;
65896;SDS011;52677;50.898;10.854;2023-03-07T08:56:14;11.48;;;6.35;;
65896;SDS011;52677;50.898;10.854;2023-03-07T08:58:16;11.25;;;5.93;;
65896;SDS011;52677;50.898;10.854;2023-03-07T09:00:16;12.75;;;6.45;;
65896;SDS011;52677;50.898;10.854;2023-03-07T09:02:17;10.93;;;6.05;;
65896;SDS011;52677;50.898;10.854;2023-03-07T09:04:17;9.00;;;5.50;;
65896;SDS011;52677;50.898;10.854;2023-03-07T09:06:18;9.95;;;6.00;;
65896;SDS011;52677;50.898;10.854;2023-03-07T09:08:20;11.55;;;6.22;;
65896;SDS011;52677;50.898;10.854;2023-03-07T09:10:20;11.73;;;6.50;;
65896;SDS011;52677;50.898;10.854;2023-03-07T09:12:21;11.95;;;6.22;;
65896;SDS011;52677;50.898;10.854;2023-03-07T09:14:22;11.20;;;6.55;;
65896;SDS011;52677;50.898;10.854;2023-03-07T09:16:22;13.07;;;7.45;;
65896;SDS011;52677;50.898;10.854;2023-03-07T09:18:23;11.98;;;6.60;;
65896;SDS011;52677;50.898;10.854;2023-03-07T09:20:24;11.18;;;6.03;;
65896;SDS011;52677;50.898;10.854;2023-03-07T09:22:25;11.93;;;6.18;;
65896;SDS011;52677;50.898;10.854;2023-03-07T09:24:26;9.52;;;5.63;;
65896;SDS011;52677;50.898;10.854;2023-03-07T09:26:26;12.75;;;6.38;;
65896;SDS011;52677;50.898;10.854;2023-03-07T09:28:26;10.80;;;6.47;;
65896;SDS011;52677;50.898;10.854;2023-03-07T09:30:27;10.85;;;6.22;;
65896;SDS011;52677;50.898;10.854;2023-03-07T09:32:27;11.65;;;6.03;;
65896;SDS011;52677;50.898;10.854;2023-03-07T09:34:28;9.30;;;6.15;;
65896;SDS011;52677;50.898;10.854;2023-03-07T09:36:28;11.93;;;6.53;;
65896;SDS011;52677;50.898;10.854;2023-03-07T09:38:28;10.40;;;6.28;;
65896;SDS011;52677;50.898;10.854;2023-03-07T09:40:29;10.07;;;5.95;;
65896;SDS011;52677;50.898;10.854;2023-03-07T09:42:32;11.18;;;6.10;;
65896;SDS011;52677;50.898;10.854;2023-03-07T09:51:49;11.50;;;6.20;;
65896;SDS011;52677;50.898;10.854;2023-03-07T09:54:00;9.63;;;5.88;;
65896;SDS011;52677;50.898;10.854;2023-03-07T09:56:06;12.07;;;6.22;;
65896;SDS011;52677;50.898;10.854;2023-03-07T09:58:13;10.27;;;6.35;;
65896;SDS011;52677;50.898;10.854;2023-03-07T10:04:49;11.00;;;6.03;;
65896;SDS011;52677;50.898;10.854;2023-03-07T10:06:54;10.77;;;5.78;;
65896;SDS011;52677;50.898;10.854;2023-03-07T10:08:57;10.75;;;5.20;;
65896;SDS011;52677;50.898;10.854;2023-03-07T10:17:55;9.75;;;5.60;;
65896;SDS011;52677;50.898;10.854;2023-03-07T10:27:52;10.18;;;5.50;;
65896;SDS011;52677;50.898;10.854;2023-03-07T10:29:59;10.30;;;5.70;;
65896;SDS011;52677;50.898;10.854;2023-03-07T10:32:19;10.93;;;6.00;;
65896;SDS011;52677;50.898;10.854;2023-03-07T10:34:38;9.18;;;5.38;;
65896;SDS011;52677;50.898;10.854;2023-03-07T10:36:44;8.90;;;5.35;;
65896;SDS011;52677;50.898;10.854;2023-03-07T10:38:52;9.40;;;5.63;;
65896;SDS011;52677;50.898;10.854;2023-03-07T10:41:00;9.02;;;5.43;;
65896;SDS011;52677;50.898;10.854;2023-03-07T10:43:13;11.25;;;4.88;;
65896;SDS011;52677;50.898;10.854;2023-03-07T10:45:21;10.57;;;4.95;;
65896;SDS011;52677;50.898;10.854;2023-03-07T10:47:23;9.73;;;5.07;;
65896;SDS011;52677;50.898;10.854;2023-03-07T10:50:04;10.38;;;5.30;;
65896;SDS011;52677;50.898;10.854;2023-03-07T10:54:17;9.25;;;4.75;;
65896;SDS011;52677;50.898;10.854;2023-03-07T10:56:20;8.55;;;5.00;;
65896;SDS011;52677;50.898;10.854;2023-03-07T10:58:27;9.68;;;4.80;;
65896;SDS011;52677;50.898;10.854;2023-03-07T11:00:27;9.63;;;5.13;;
65896;SDS011;52677;50.898;10.854;2023-03-07T11:04:41;8.40;;;4.70;;
65896;SDS011;52677;50.898;10.854;2023-03-07T11:08:49;10.48;;;5.70;;
65896;SDS011;52677;50.898;10.854;2023-03-07T11:10:49;7.70;;;5.05;;
65896;SDS011;52677;50.898;10.854;2023-03-07T11:12:50;9.00;;;4.90;;
65896;SDS011;52677;50.898;10.854;2023-03-07T11:15:08;7.40;;;4.72;;
65896;SDS011;52677;50.898;10.854;2023-03-07T11:17:23;7.75;;;4.63;;
65896;SDS011;52677;50.898;10.854;2023-03-07T11:21:42;9.70;;;5.30;;
65896;SDS011;52677;50.898;10.854;2023-03-07T11:24:05;10.48;;;5.57;;
65896;SDS011;52677;50.898;10.854;2023-03-07T11:26:21;9.80;;;5.07;;
65896;SDS011;52677;50.898;10.854;2023-03-07T11:28:26;9.15;;;4.78;;
65896;SDS011;52677;50.898;10.854;2023-03-07T11:31:13;10.75;;;5.18;;
65896;SDS011;52677;50.898;10.854;2023-03-07T11:35:41;12.90;;;5.65;;
65896;SDS011;52677;50.898;10.854;2023-03-07T11:38:06;9.05;;;5.05;;
65896;SDS011;52677;50.898;10.854;2023-03-07T11:40:20;7.10;;;4.55;;
65896;SDS011;52677;50.898;10.854;2023-03-07T11:42:32;7.75;;;4.90;;
65896;SDS011;52677;50.898;10.854;2023-03-07T11:56:29;10.48;;;5.25;;
65896;SDS011;52677;50.898;10.854;2023-03-07T12:03:20;8.80;;;5.63;;
65896;SDS011;52677;50.898;10.854;2023-03-07T12:05:37;8.10;;;5.10;;
65896;SDS011;52677;50.898;10.854;2023-03-07T12:07:55;8.23;;;5.15;;
65896;SDS011;52677;50.898;10.854;2023-03-07T12:17:28;9.68;;;5.22;;
65896;SDS011;52677;50.898;10.854;2023-03-07T12:20:22;7.78;;;4.75;;
65896;SDS011;52677;50.898;10.854;2023-03-07T12:22:26;8.88;;;4.90;;
65896;SDS011;52677;50.898;10.854;2023-03-07T12:24:34;8.20;;;5.00;;
65896;SDS011;52677;50.898;10.854;2023-03-07T12:31:13;8.38;;;4.97;;
65896;SDS011;52677;50.898;10.854;2023-03-07T12:33:21;10.35;;;4.75;;
65896;SDS011;52677;50.898;10.854;2023-03-07T12:35:30;7.82;;;4.85;;
65896;SDS011;52677;50.898;10.854;2023-03-07T12:37:41;10.32;;;5.00;;
65896;SDS011;52677;50.898;10.854;2023-03-07T12:39:52;7.38;;;4.57;;
65896;SDS011;52677;50.898;10.854;2023-03-07T12:46:53;8.05;;;4.88;;
65896;SDS011;52677;50.898;10.854;2023-03-07T12:49:20;10.05;;;5.07;;
65896;SDS011;52677;50.898;10.854;2023-03-07T12:51:32;8.82;;;5.20;;
65896;SDS011;52677;50.898;10.854;2023-03-07T12:53:55;9.35;;;5.00;;
65896;SDS011;52677;50.898;10.854;2023-03-07T13:00:38;7.13;;;5.13;;
65896;SDS011;52677;50.898;10.854;2023-03-07T13:02:43;7.72;;;4.63;;
65896;SDS011;52677;50.898;10.854;2023-03-07T13:04:48;6.78;;;4.80;;
65896;SDS011;52677;50.898;10.854;2023-03-07T13:06:49;8.02;;;5.50;;
65896;SDS011;52677;50.898;10.854;2023-03-07T13:08:53;8.38;;;5.05;;
65896;SDS011;52677;50.898;10.854;2023-03-07T13:10:56;8.52;;;5.03;;
65896;SDS011;52677;50.898;10.854;2023-03-07T13:12:57;8.13;;;4.97;;
65896;SDS011;52677;50.898;10.854;2023-03-07T13:15:43;9.40;;;5.20;;
65896;SDS011;52677;50.898;10.854;2023-03-07T13:21:30;8.15;;;5.15;;
65896;SDS011;52677;50.898;10.854;2023-03-07T13:23:31;8.25;;;5.47;;
65896;SDS011;52677;50.898;10.854;2023-03-07T13:25:41;7.70;;;4.85;;
65896;SDS011;52677;50.898;10.854;2023-03-07T13:34:48;9.68;;;5.35;;